createdAt,value
2017-11-20T00:00:18.502Z,1012.73
2017-11-20T00:05:13.932Z,1012.71
2017-11-20T00:10:10.650Z,1012.75
2017-11-20T00:15:05.902Z,1012.75
2017-11-20T00:20:01.762Z,1012.72
2017-11-20T00:24:58.055Z,1012.70
2017-11-20T00:29:54.449Z,1012.73
2017-11-20T00:34:51.091Z,1012.65
2017-11-20T00:39:46.552Z,1012.67
2017-11-20T00:44:42.256Z,1012.59
2017-11-20T00:49:39.032Z,1012.52
2017-11-20T00:54:35.566Z,1012.55
2017-11-20T00:59:33.314Z,1012.55
2017-11-20T01:04:28.315Z,1012.64
2017-11-20T01:09:24.116Z,1012.67
2017-11-20T01:14:19.592Z,1012.66
2017-11-20T01:19:15.969Z,1012.67
2017-11-20T01:24:11.604Z,1012.69
2017-11-20T01:29:07.303Z,1012.63
2017-11-20T01:34:02.994Z,1012.59
2017-11-20T01:38:58.832Z,1012.54
2017-11-20T01:43:57.251Z,1012.51
2017-11-20T01:48:52.589Z,1012.51
2017-11-20T01:53:49.536Z,1012.39
2017-11-20T01:58:46.747Z,1012.53
2017-11-20T02:03:43.971Z,1012.48
2017-11-20T02:08:39.469Z,1012.54
2017-11-20T02:13:35.314Z,1012.51
2017-11-20T02:18:31.010Z,1012.34
2017-11-20T02:23:26.894Z,1012.38
2017-11-20T02:28:23.881Z,1012.33
2017-11-20T02:33:20.368Z,1012.27
2017-11-20T02:38:16.678Z,1012.28
2017-11-20T02:43:13.120Z,1012.34
2017-11-20T02:48:08.638Z,1012.35
2017-11-20T02:53:04.161Z,1012.22
2017-11-20T02:58:00.993Z,1012.23
2017-11-20T03:02:56.349Z,1012.15
2017-11-20T03:07:52.991Z,1012.08
2017-11-20T03:12:48.410Z,1012.10
2017-11-20T03:17:44.059Z,1012.08
2017-11-20T03:22:39.733Z,1012.10
2017-11-20T03:27:35.512Z,1012.08
2017-11-20T03:32:31.252Z,1012.06
2017-11-20T03:37:28.183Z,1012.16
2017-11-20T03:42:24.634Z,1012.05
2017-11-20T03:47:21.047Z,1012.07
2017-11-20T03:52:17.920Z,1012.10
2017-11-20T03:57:13.490Z,1012.17
2017-11-20T04:02:09.856Z,1012.08
2017-11-20T04:07:05.825Z,1012.02
2017-11-20T04:12:01.654Z,1012.02
2017-11-20T04:16:57.365Z,1012.03
2017-11-20T04:21:55.143Z,1011.99
2017-11-20T04:26:50.413Z,1011.99
2017-11-20T04:31:46.001Z,1012.04
2017-11-20T04:36:41.588Z,1012.04
2017-11-20T04:41:37.308Z,1012.00
2017-11-20T04:46:33.749Z,1012.02
2017-11-20T04:51:30.567Z,1011.92
2017-11-20T04:56:27.107Z,1011.99
2017-11-20T05:01:23.161Z,1011.92
2017-11-20T05:06:19.985Z,1011.87
2017-11-20T05:11:16.187Z,1011.91
2017-11-20T05:16:12.723Z,1011.91
2017-11-20T05:21:09.073Z,1011.95
2017-11-20T05:26:05.456Z,1011.95
2017-11-20T05:31:00.844Z,1011.91
2017-11-20T05:35:57.534Z,1011.99
2017-11-20T05:40:54.041Z,1011.99
2017-11-20T05:45:51.258Z,1011.92
2017-11-20T05:50:46.767Z,1011.89
2017-11-20T05:55:42.426Z,1011.86
2017-11-20T06:00:38.616Z,1011.94
2017-11-20T06:05:35.073Z,1011.84
2017-11-20T06:10:30.885Z,1011.99
2017-11-20T06:15:26.709Z,1011.86
2017-11-20T06:20:23.442Z,1011.86
2017-11-20T06:25:19.860Z,1011.93
2017-11-20T06:30:16.337Z,1011.95
2017-11-20T06:35:11.684Z,1011.96
2017-11-20T06:40:08.842Z,1011.99
2017-11-20T06:45:04.689Z,1012.09
2017-11-20T06:50:00.676Z,1012.08
2017-11-20T06:54:56.285Z,1012.03
2017-11-20T06:59:52.191Z,1012.06
2017-11-20T07:04:47.800Z,1012.11
2017-11-20T07:09:44.192Z,1012.09
2017-11-20T07:14:39.937Z,1012.22
2017-11-20T07:19:36.728Z,1012.17
2017-11-20T07:24:32.429Z,1012.09
2017-11-20T07:29:28.221Z,1012.21
2017-11-20T07:34:24.824Z,1012.20
2017-11-20T07:39:21.421Z,1012.18
2017-11-20T07:44:17.885Z,1012.25
2017-11-20T07:49:13.300Z,1012.32
2017-11-20T07:54:09.017Z,1012.25
2017-11-20T07:59:06.770Z,1012.28
2017-11-20T08:04:02.891Z,1012.17
2017-11-20T08:09:00.122Z,1012.11
2017-11-20T08:13:58.270Z,1012.24
2017-11-20T08:18:53.470Z,1012.12
2017-11-20T08:23:50.189Z,1012.10
2017-11-20T08:28:45.663Z,1012.05
2017-11-20T08:33:42.906Z,1012.07
2017-11-20T08:38:38.638Z,1012.01
2017-11-20T08:43:34.126Z,1011.92
2017-11-20T08:48:31.075Z,1011.82
2017-11-20T08:53:27.594Z,1012.03
2017-11-20T08:58:23.654Z,1011.84
2017-11-20T09:03:20.148Z,1011.82
2017-11-20T09:08:15.954Z,1011.87
2017-11-20T09:13:11.722Z,1011.86
2017-11-20T09:18:08.343Z,1011.83
2017-11-20T09:23:03.873Z,1011.73
2017-11-20T09:28:00.685Z,1011.78
2017-11-20T09:32:58.147Z,1011.76
2017-11-20T09:37:54.383Z,1011.73
2017-11-20T09:42:50.571Z,1011.74
2017-11-20T09:47:46.293Z,1011.59
2017-11-20T09:52:42.116Z,1011.61
2017-11-20T09:57:38.841Z,1011.61
2017-11-20T10:02:35.225Z,1011.50
2017-11-20T10:07:30.736Z,1011.35
2017-11-20T10:12:26.578Z,1011.34
2017-11-20T10:17:22.103Z,1011.44
2017-11-20T10:22:18.671Z,1011.37
2017-11-20T10:27:15.134Z,1011.29
2017-11-20T10:32:11.062Z,1011.20
2017-11-20T10:37:07.379Z,1011.12
2017-11-20T10:42:03.154Z,1011.05
2017-11-20T10:46:58.979Z,1011.00
2017-11-20T10:51:54.651Z,1010.94
2017-11-20T10:56:51.626Z,1010.93
2017-11-20T11:01:47.258Z,1010.81
2017-11-20T11:06:44.057Z,1010.84
2017-11-20T11:11:39.625Z,1010.80
2017-11-20T11:16:35.428Z,1010.69
2017-11-20T11:21:31.233Z,1010.58
2017-11-20T11:26:26.808Z,1010.53
2017-11-20T11:31:22.570Z,1010.37
2017-11-20T11:36:18.346Z,1010.33
2017-11-20T11:41:14.024Z,1010.28
2017-11-20T11:46:09.339Z,1010.14
2017-11-20T11:51:05.263Z,1010.06
2017-11-20T11:56:02.324Z,1009.93
2017-11-20T12:00:58.982Z,1009.99
2017-11-20T12:05:54.686Z,1009.83
2017-11-20T12:10:51.314Z,1009.70
2017-11-20T12:15:46.811Z,1009.60
2017-11-20T12:20:43.585Z,1009.61
2017-11-20T12:25:39.108Z,1009.51
2017-11-20T12:30:36.794Z,1009.38
2017-11-20T12:35:31.838Z,1009.28
2017-11-20T12:40:28.304Z,1009.09
2017-11-20T12:45:25.699Z,1008.97
2017-11-20T12:50:22.215Z,1008.84
2017-11-20T12:55:17.567Z,1008.73
2017-11-20T13:00:14.372Z,1008.67
2017-11-20T13:05:11.874Z,1008.61
2017-11-20T13:10:08.155Z,1008.51
2017-11-20T13:15:03.054Z,1008.27
2017-11-20T13:20:00.453Z,1008.07
2017-11-20T13:24:56.893Z,1007.90
2017-11-20T13:29:53.379Z,1007.75
2017-11-20T13:34:49.738Z,1007.66
2017-11-20T13:39:45.305Z,1007.53
2017-11-20T13:44:41.169Z,1007.44
2017-11-20T13:49:36.584Z,1007.25
2017-11-20T13:54:33.341Z,1007.12
2017-11-20T13:59:29.786Z,1007.05
2017-11-20T14:04:25.108Z,1006.98
2017-11-20T14:09:20.829Z,1006.79
2017-11-20T14:14:17.067Z,1006.66
2017-11-20T14:19:13.919Z,1006.63
2017-11-20T14:24:09.285Z,1006.63
2017-11-20T14:29:05.474Z,1006.57
2017-11-20T14:34:02.146Z,1006.46
2017-11-20T14:38:59.367Z,1006.41
2017-11-20T14:43:55.896Z,1006.15
2017-11-20T14:48:51.571Z,1006.21
2017-11-20T14:53:47.249Z,1006.02
2017-11-20T14:58:42.913Z,1005.95
2017-11-20T15:03:40.186Z,1005.83
2017-11-20T15:08:35.658Z,1005.72
2017-11-20T15:13:31.066Z,1005.72
2017-11-20T15:18:27.892Z,1005.69
2017-11-20T15:23:23.395Z,1005.58
2017-11-20T15:28:19.449Z,1005.66
2017-11-20T15:33:15.959Z,1005.47
2017-11-20T15:38:11.456Z,1005.42
2017-11-20T15:43:07.265Z,1005.25
2017-11-20T15:48:05.067Z,1005.28
2017-11-20T15:53:01.826Z,1005.13
2017-11-20T15:57:57.536Z,1005.07
2017-11-20T16:02:53.285Z,1004.99
2017-11-20T16:07:49.166Z,1004.90
2017-11-20T16:12:44.902Z,1004.88
2017-11-20T16:17:41.869Z,1004.89
2017-11-20T16:22:39.416Z,1004.85
2017-11-20T16:27:34.679Z,1004.83
2017-11-20T16:32:30.597Z,1004.61
2017-11-20T16:37:26.364Z,1004.48
2017-11-20T16:42:23.188Z,1004.46
2017-11-20T16:47:18.660Z,1004.33
2017-11-20T16:52:14.446Z,1004.22
2017-11-20T16:57:11.193Z,1004.17
2017-11-20T17:02:06.680Z,1004.14
2017-11-20T17:07:02.383Z,1004.18
2017-11-20T17:11:59.358Z,1004.15
2017-11-20T17:16:55.745Z,1004.04
2017-11-20T17:21:53.452Z,1003.97
2017-11-20T17:26:50.600Z,1003.96
2017-11-20T17:31:45.839Z,1003.97
2017-11-20T17:36:43.967Z,1003.73
2017-11-20T17:41:40.987Z,1003.69
2017-11-20T17:46:36.044Z,1003.66
2017-11-20T17:51:32.438Z,1003.64
2017-11-20T17:56:28.323Z,1003.64
2017-11-20T18:01:25.290Z,1003.54
2017-11-20T18:06:21.309Z,1003.48
2017-11-20T18:11:17.100Z,1003.47
2017-11-20T18:16:12.804Z,1003.41
2017-11-20T18:21:08.665Z,1003.32
2017-11-20T18:26:06.255Z,1003.32
2017-11-20T18:31:02.313Z,1003.21
2017-11-20T18:35:58.122Z,1003.23
2017-11-20T18:40:53.805Z,1003.23
2017-11-20T18:45:49.891Z,1003.14
2017-11-20T18:50:46.824Z,1003.24
2017-11-20T18:55:43.143Z,1003.04
2017-11-20T19:00:38.763Z,1003.20
2017-11-20T19:05:35.554Z,1003.19
2017-11-20T19:10:32.143Z,1003.14
2017-11-20T19:15:27.704Z,1003.18
2017-11-20T19:20:23.583Z,1003.04
2017-11-20T19:25:19.446Z,1002.95
2017-11-20T19:30:15.243Z,1003.02
2017-11-20T19:35:11.297Z,1003.02
2017-11-20T19:40:07.003Z,1002.99
2017-11-20T19:45:02.984Z,1002.90
2017-11-20T19:49:59.934Z,1002.98
2017-11-20T19:54:55.381Z,1002.93
2017-11-20T19:59:51.157Z,1002.84
2017-11-20T20:04:47.126Z,1002.88
2017-11-20T20:09:43.200Z,1002.69
2017-11-20T20:14:38.919Z,1002.79
2017-11-20T20:19:34.839Z,1002.86
2017-11-20T20:24:30.549Z,1002.80
2017-11-20T20:29:28.490Z,1002.77
2017-11-20T20:34:23.567Z,1002.70
2017-11-20T20:39:20.731Z,1002.66
2017-11-20T20:44:16.368Z,1002.66
2017-11-20T20:49:12.166Z,1002.72
2017-11-20T20:54:08.873Z,1002.67
2017-11-20T20:59:06.331Z,1002.58
2017-11-20T21:04:01.915Z,1002.56
2017-11-20T21:08:57.654Z,1002.66
2017-11-20T21:13:54.189Z,1002.57
2017-11-20T21:18:50.785Z,1002.61
2017-11-20T21:23:47.177Z,1002.63
2017-11-20T21:28:43.627Z,1002.62
2017-11-20T21:33:39.768Z,1002.55
2017-11-20T21:38:36.211Z,1002.48
2017-11-20T21:43:32.813Z,1002.41
2017-11-20T21:48:29.329Z,1002.53
2017-11-20T21:53:26.310Z,1002.57
2017-11-20T21:58:21.872Z,1002.60
2017-11-20T22:03:17.812Z,1002.66
2017-11-20T22:08:14.904Z,1002.77
2017-11-20T22:13:10.552Z,1002.79
2017-11-20T22:18:07.138Z,1002.66
2017-11-20T22:23:02.740Z,1002.59
2017-11-20T22:27:59.107Z,1002.66
2017-11-20T22:32:55.810Z,1002.66
2017-11-20T22:37:52.789Z,1002.69
2017-11-20T22:42:48.336Z,1002.78
2017-11-20T22:47:44.253Z,1002.79
2017-11-20T22:52:41.082Z,1002.78
2017-11-20T22:57:37.345Z,1002.73
2017-11-20T23:02:32.874Z,1002.77
2017-11-20T23:07:29.078Z,1002.71
2017-11-20T23:12:25.085Z,1002.70
2017-11-20T23:17:21.654Z,1002.62
2017-11-20T23:22:17.620Z,1002.60
2017-11-20T23:27:14.274Z,1002.62
2017-11-20T23:32:09.772Z,1002.57
2017-11-20T23:37:07.637Z,1002.75
2017-11-20T23:42:03.440Z,1002.62
2017-11-20T23:46:58.922Z,1002.64
2017-11-20T23:51:56.325Z,1002.69
2017-11-20T23:56:51.844Z,1002.63
